Terminal Aerodrome Forecast
Issued by NWS

Home | Current Version | Previous Version | Text Only | Print | Product List | Glossary On
Versions: 1 2 3 4 5 6 7 8 9 10 11 12 13 14 15 16 17 18 19 20 21
000
FTUS46 KLOX 190700 AAA
TAFSBA
TAF AMD
KSBA 190701Z 1907/2006 VRB03KT P6SM SCT025
     FM191900 16006KT P6SM BKN035
     FM192200 27007KT P6SM VCSH BKN035
     FM200200 VRB03KT P6SM VCSH SCT010 BKN030=

USA.gov is the U.S. government's official web portal to all federal, state and local government web resources and services.